Tonganoxie, Kansas
Current Conditions -  °F | °C
As of 8:52 PM on Monday 26 Jan 2015 (Local Time) from KLWC Reporting Station
Clear Clear  
Wind Chill: 30°   Ceiling: Unl
Heat Index: 36°   Visibility: 10mi
Dew Point: 28°   Wind: 7mph
Humidity: 73%   Direction: 300°WNW
Pressure: 30.02"   Gusts: NA
Location:  39.11°N, 95.09°W
Report Text: KLWC 270252Z AUTO 30006KT 10SM CLR 02/M02 A3002 RMK AO2 SLP172 T00221022 51015
Loading
Personal Weather Stations






























Interactive Weather Map New forecast layout! Learn more

10-Day Weather Forecast

Advertisements
Track Severe Weather on mobile